sensor_id;sensor_type;location;lat;lon;timestamp;temperature;humidity
6903;DHT22;20232;49.408;8.702;2023-01-19T05:02:15;1.20;99.90
6903;DHT22;20232;49.408;8.702;2023-01-19T05:04:41;1.20;99.90
6903;DHT22;20232;49.408;8.702;2023-01-19T05:07:07;1.20;99.90
6903;DHT22;20232;49.408;8.702;2023-01-19T05:09:33;1.20;99.90
6903;DHT22;20232;49.408;8.702;2023-01-19T05:11:59;1.10;99.90
6903;DHT22;20232;49.408;8.702;2023-01-19T05:14:25;1.10;99.90
6903;DHT22;20232;49.408;8.702;2023-01-19T05:16:50;1.10;99.90
6903;DHT22;20232;49.408;8.702;2023-01-19T05:19:16;1.10;99.90
6903;DHT22;20232;49.408;8.702;2023-01-19T05:21:41;1.20;99.90
6903;DHT22;20232;49.408;8.702;2023-01-19T05:24:07;1.10;99.90
6903;DHT22;20232;49.408;8.702;2023-01-19T05:26:33;1.10;99.90
6903;DHT22;20232;49.408;8.702;2023-01-19T05:28:58;1.10;99.90
6903;DHT22;20232;49.408;8.702;2023-01-19T05:31:24;1.00;99.90
6903;DHT22;20232;49.408;8.702;2023-01-19T05:33:49;1.00;99.90
6903;DHT22;20232;49.408;8.702;2023-01-19T05:36:15;1.00;99.90
6903;DHT22;20232;49.408;8.702;2023-01-19T05:38:41;0.90;99.90
6903;DHT22;20232;49.408;8.702;2023-01-19T05:41:06;0.80;99.90
6903;DHT22;20232;49.408;8.702;2023-01-19T05:43:32;0.90;99.90
6903;DHT22;20232;49.408;8.702;2023-01-19T05:45:57;0.80;99.90
6903;DHT22;20232;49.408;8.702;2023-01-19T05:48:23;0.80;99.90
6903;DHT22;20232;49.408;8.702;2023-01-19T05:50:48;0.90;99.90
6903;DHT22;20232;49.408;8.702;2023-01-19T05:53:14;0.90;99.90
6903;DHT22;20232;49.408;8.702;2023-01-19T05:55:40;0.90;99.90
6903;DHT22;20232;49.408;8.702;2023-01-19T05:58:06;0.90;99.90
6903;DHT22;20232;49.408;8.702;2023-01-19T06:00:32;0.90;99.90
6903;DHT22;20232;49.408;8.702;2023-01-19T06:02:57;1.00;99.90
6903;DHT22;20232;49.408;8.702;2023-01-19T06:05:24;1.00;99.90
6903;DHT22;20232;49.408;8.702;2023-01-19T06:07:50;1.10;99.90
6903;DHT22;20232;49.408;8.702;2023-01-19T06:10:16;1.10;99.90
6903;DHT22;20232;49.408;8.702;2023-01-19T06:12:42;1.00;99.90
6903;DHT22;20232;49.408;8.702;2023-01-19T06:15:07;1.00;99.90
6903;DHT22;20232;49.408;8.702;2023-01-19T06:17:33;0.90;99.90
6903;DHT22;20232;49.408;8.702;2023-01-19T06:19:58;0.90;99.90
6903;DHT22;20232;49.408;8.702;2023-01-19T06:22:24;1.00;99.90
6903;DHT22;20232;49.408;8.702;2023-01-19T06:24:50;0.90;99.90
6903;DHT22;20232;49.408;8.702;2023-01-19T06:27:15;0.90;99.90
6903;DHT22;20232;49.408;8.702;2023-01-19T06:29:41;0.90;99.90
6903;DHT22;20232;49.408;8.702;2023-01-19T06:32:06;0.90;99.90
6903;DHT22;20232;49.408;8.702;2023-01-19T06:34:32;0.90;99.90
6903;DHT22;20232;49.408;8.702;2023-01-19T06:36:57;1.00;99.90
6903;DHT22;20232;49.408;8.702;2023-01-19T06:39:23;1.10;99.90
6903;DHT22;20232;49.408;8.702;2023-01-19T06:41:49;1.20;99.90
6903;DHT22;20232;49.408;8.702;2023-01-19T06:44:14;1.30;99.90
6903;DHT22;20232;49.408;8.702;2023-01-19T06:46:40;1.40;99.90
6903;DHT22;20232;49.408;8.702;2023-01-19T06:49:06;1.50;99.90
6903;DHT22;20232;49.408;8.702;2023-01-19T06:51:32;1.50;99.90
6903;DHT22;20232;49.408;8.702;2023-01-19T06:53:58;1.50;99.90
6903;DHT22;20232;49.408;8.702;2023-01-19T06:56:23;1.40;99.90
6903;DHT22;20232;49.408;8.702;2023-01-19T06:58:49;1.40;99.90
6903;DHT22;20232;49.408;8.702;2023-01-19T07:01:17;1.30;99.90
6903;DHT22;20232;49.408;8.702;2023-01-19T07:03:43;1.40;99.90
6903;DHT22;20232;49.408;8.702;2023-01-19T07:06:08;1.30;99.90
6903;DHT22;20232;49.408;8.702;2023-01-19T07:08:35;1.30;99.90
6903;DHT22;20232;49.408;8.702;2023-01-19T07:11:06;1.30;99.90
6903;DHT22;20232;49.408;8.702;2023-01-19T07:13:33;1.30;99.90
6903;DHT22;20232;49.408;8.702;2023-01-19T07:16:04;1.40;99.90
6903;DHT22;20232;49.408;8.702;2023-01-19T07:18:29;1.40;99.90
6903;DHT22;20232;49.408;8.702;2023-01-19T07:20:56;1.40;99.90
6903;DHT22;20232;49.408;8.702;2023-01-19T07:23:22;1.40;99.90
6903;DHT22;20232;49.408;8.702;2023-01-19T07:25:47;1.30;99.90
6903;DHT22;20232;49.408;8.702;2023-01-19T07:28:13;1.40;99.90
6903;DHT22;20232;49.408;8.702;2023-01-19T07:30:41;1.50;99.90
6903;DHT22;20232;49.408;8.702;2023-01-19T07:33:07;1.50;99.90
6903;DHT22;20232;49.408;8.702;2023-01-19T07:35:33;1.50;99.90
6903;DHT22;20232;49.408;8.702;2023-01-19T07:37:59;1.50;99.90
6903;DHT22;20232;49.408;8.702;2023-01-19T07:40:24;1.60;99.90
6903;DHT22;20232;49.408;8.702;2023-01-19T07:42:50;1.60;99.90
6903;DHT22;20232;49.408;8.702;2023-01-19T07:45:17;1.60;99.90
6903;DHT22;20232;49.408;8.702;2023-01-19T07:47:43;1.60;99.90
6903;DHT22;20232;49.408;8.702;2023-01-19T07:50:11;1.50;99.90
6903;DHT22;20232;49.408;8.702;2023-01-19T07:52:37;1.50;99.90
6903;DHT22;20232;49.408;8.702;2023-01-19T07:55:02;1.60;99.90
6903;DHT22;20232;49.408;8.702;2023-01-19T07:57:28;1.60;99.90
6903;DHT22;20232;49.408;8.702;2023-01-19T07:59:54;1.60;99.90
6903;DHT22;20232;49.408;8.702;2023-01-19T08:02:19;1.70;99.90
6903;DHT22;20232;49.408;8.702;2023-01-19T08:04:47;1.70;99.90
6903;DHT22;20232;49.408;8.702;2023-01-19T08:07:13;1.70;99.90
6903;DHT22;20232;49.408;8.702;2023-01-19T08:09:39;1.70;99.90
6903;DHT22;20232;49.408;8.702;2023-01-19T08:12:04;1.70;99.90
6903;DHT22;20232;49.408;8.702;2023-01-19T08:14:30;1.80;99.90
6903;DHT22;20232;49.408;8.702;2023-01-19T08:17:00;1.80;99.90
6903;DHT22;20232;49.408;8.702;2023-01-19T08:19:26;1.70;99.90
6903;DHT22;20232;49.408;8.702;2023-01-19T08:21:52;1.70;99.90
6903;DHT22;20232;49.408;8.702;2023-01-19T08:24:20;1.70;99.90
6903;DHT22;20232;49.408;8.702;2023-01-19T08:26:47;1.60;99.90
6903;DHT22;20232;49.408;8.702;2023-01-19T08:29:13;1.60;99.90
6903;DHT22;20232;49.408;8.702;2023-01-19T08:31:39;1.70;99.90
6903;DHT22;20232;49.408;8.702;2023-01-19T08:34:04;1.60;99.90
6903;DHT22;20232;49.408;8.702;2023-01-19T08:36:30;1.60;99.90
6903;DHT22;20232;49.408;8.702;2023-01-19T08:38:56;1.60;99.90
6903;DHT22;20232;49.408;8.702;2023-01-19T08:41:21;1.60;99.90
6903;DHT22;20232;49.408;8.702;2023-01-19T08:43:48;1.60;99.90
6903;DHT22;20232;49.408;8.702;2023-01-19T08:46:13;1.70;99.90
6903;DHT22;20232;49.408;8.702;2023-01-19T08:48:42;1.70;99.90
6903;DHT22;20232;49.408;8.702;2023-01-19T08:51:10;1.70;99.90
6903;DHT22;20232;49.408;8.702;2023-01-19T08:53:37;1.70;99.90
6903;DHT22;20232;49.408;8.702;2023-01-19T08:56:02;1.70;99.90
6903;DHT22;20232;49.408;8.702;2023-01-19T08:58:28;1.70;99.90
6903;DHT22;20232;49.408;8.702;2023-01-19T09:00:54;1.70;99.90
6903;DHT22;20232;49.408;8.702;2023-01-19T09:03:20;1.80;99.90
6903;DHT22;20232;49.408;8.702;2023-01-19T09:05:47;1.80;99.90
6903;DHT22;20232;49.408;8.702;2023-01-19T09:08:13;1.90;99.90
6903;DHT22;20232;49.408;8.702;2023-01-19T09:10:48;2.00;99.90
6903;DHT22;20232;49.408;8.702;2023-01-19T09:13:14;2.00;99.90
6903;DHT22;20232;49.408;8.702;2023-01-19T09:15:40;2.10;99.90
6903;DHT22;20232;49.408;8.702;2023-01-19T09:18:08;2.20;99.90
6903;DHT22;20232;49.408;8.702;2023-01-19T09:20:34;2.20;99.90
6903;DHT22;20232;49.408;8.702;2023-01-19T09:23:02;2.30;99.90
6903;DHT22;20232;49.408;8.702;2023-01-19T09:25:28;2.40;99.90
6903;DHT22;20232;49.408;8.702;2023-01-19T09:27:54;2.40;99.90
6903;DHT22;20232;49.408;8.702;2023-01-19T09:30:20;2.40;99.90
6903;DHT22;20232;49.408;8.702;2023-01-19T09:32:46;2.50;99.90
6903;DHT22;20232;49.408;8.702;2023-01-19T09:35:12;2.50;99.90
6903;DHT22;20232;49.408;8.702;2023-01-19T09:37:37;2.50;99.90
6903;DHT22;20232;49.408;8.702;2023-01-19T09:40:04;2.50;99.90
6903;DHT22;20232;49.408;8.702;2023-01-19T09:42:42;2.40;99.90
6903;DHT22;20232;49.408;8.702;2023-01-19T09:47:46;2.30;99.90
6903;DHT22;20232;49.408;8.702;2023-01-19T09:50:35;2.20;99.90
6903;DHT22;20232;49.408;8.702;2023-01-19T09:53:12;2.20;99.90
6903;DHT22;20232;49.408;8.702;2023-01-19T09:55:40;2.20;99.90
6903;DHT22;20232;49.408;8.702;2023-01-19T09:58:13;2.20;99.90
6903;DHT22;20232;49.408;8.702;2023-01-19T10:00:42;2.20;99.90
6903;DHT22;20232;49.408;8.702;2023-01-19T10:03:15;2.20;99.90
6903;DHT22;20232;49.408;8.702;2023-01-19T10:06:00;2.20;99.90
6903;DHT22;20232;49.408;8.702;2023-01-19T10:11:42;2.20;99.90
6903;DHT22;20232;49.408;8.702;2023-01-19T10:14:19;2.20;99.90
6903;DHT22;20232;49.408;8.702;2023-01-19T10:16:58;2.30;99.90
6903;DHT22;20232;49.408;8.702;2023-01-19T10:19:37;2.40;99.90
6903;DHT22;20232;49.408;8.702;2023-01-19T10:22:21;2.50;99.90
6903;DHT22;20232;49.408;8.702;2023-01-19T10:24:52;2.50;99.90
6903;DHT22;20232;49.408;8.702;2023-01-19T10:27:22;2.50;99.90
6903;DHT22;20232;49.408;8.702;2023-01-19T10:29:48;2.70;99.90
6903;DHT22;20232;49.408;8.702;2023-01-19T10:32:25;2.70;99.90
6903;DHT22;20232;49.408;8.702;2023-01-19T10:34:52;2.70;99.90
6903;DHT22;20232;49.408;8.702;2023-01-19T10:37:30;2.80;99.90
6903;DHT22;20232;49.408;8.702;2023-01-19T10:40:01;2.80;99.90
6903;DHT22;20232;49.408;8.702;2023-01-19T10:42:31;2.80;99.90
6903;DHT22;20232;49.408;8.702;2023-01-19T10:44:57;2.90;99.90
6903;DHT22;20232;49.408;8.702;2023-01-19T10:47:30;2.80;99.90
6903;DHT22;20232;49.408;8.702;2023-01-19T10:49:57;2.70;99.90
6903;DHT22;20232;49.408;8.702;2023-01-19T10:52:34;2.70;99.90
6903;DHT22;20232;49.408;8.702;2023-01-19T10:55:07;2.80;99.90
6903;DHT22;20232;49.408;8.702;2023-01-19T10:57:48;2.90;99.90
6903;DHT22;20232;49.408;8.702;2023-01-19T11:03:21;3.10;99.90
6903;DHT22;20232;49.408;8.702;2023-01-19T11:05:47;3.30;99.90
6903;DHT22;20232;49.408;8.702;2023-01-19T11:08:29;3.30;99.90
6903;DHT22;20232;49.408;8.702;2023-01-19T11:11:02;3.30;99.90
6903;DHT22;20232;49.408;8.702;2023-01-19T11:13:29;3.30;99.90
6903;DHT22;20232;49.408;8.702;2023-01-19T11:15:57;3.40;99.90
6903;DHT22;20232;49.408;8.702;2023-01-19T11:18:32;3.40;99.90
6903;DHT22;20232;49.408;8.702;2023-01-19T11:21:07;3.40;99.90
6903;DHT22;20232;49.408;8.702;2023-01-19T11:23:50;3.30;99.90
6903;DHT22;20232;49.408;8.702;2023-01-19T11:26:28;3.30;99.90
6903;DHT22;20232;49.408;8.702;2023-01-19T11:28:57;3.10;99.90
6903;DHT22;20232;49.408;8.702;2023-01-19T11:33:59;3.20;99.90
6903;DHT22;20232;49.408;8.702;2023-01-19T11:36:28;3.20;99.90
6903;DHT22;20232;49.408;8.702;2023-01-19T11:39:00;3.20;99.90
6903;DHT22;20232;49.408;8.702;2023-01-19T11:41:33;3.20;99.90
6903;DHT22;20232;49.408;8.702;2023-01-19T11:44:20;3.20;99.90
6903;DHT22;20232;49.408;8.702;2023-01-19T11:46:53;3.20;99.90
6903;DHT22;20232;49.408;8.702;2023-01-19T11:54:40;3.50;99.90
6903;DHT22;20232;49.408;8.702;2023-01-19T11:57:12;3.50;99.90
6903;DHT22;20232;49.408;8.702;2023-01-19T11:59:39;3.50;99.90
6903;DHT22;20232;49.408;8.702;2023-01-19T12:02:16;3.60;99.90
6903;DHT22;20232;49.408;8.702;2023-01-19T12:04:45;3.70;99.90
6903;DHT22;20232;49.408;8.702;2023-01-19T12:07:13;3.90;99.90
6903;DHT22;20232;49.408;8.702;2023-01-19T12:09:45;3.90;99.90
6903;DHT22;20232;49.408;8.702;2023-01-19T12:12:27;3.80;99.90
6903;DHT22;20232;49.408;8.702;2023-01-19T12:14:59;3.80;99.90
6903;DHT22;20232;49.408;8.702;2023-01-19T12:17:34;3.70;99.90
6903;DHT22;20232;49.408;8.702;2023-01-19T12:22:48;3.40;99.90
6903;DHT22;20232;49.408;8.702;2023-01-19T12:25:39;3.40;99.90
6903;DHT22;20232;49.408;8.702;2023-01-19T12:28:09;3.40;99.90
6903;DHT22;20232;49.408;8.702;2023-01-19T12:30:37;3.50;99.90
6903;DHT22;20232;49.408;8.702;2023-01-19T12:33:41;3.50;99.90
6903;DHT22;20232;49.408;8.702;2023-01-19T12:41:36;3.50;99.90
6903;DHT22;20232;49.408;8.702;2023-01-19T12:51:42;3.60;99.90
6903;DHT22;20232;49.408;8.702;2023-01-19T12:54:22;3.50;99.90
6903;DHT22;20232;49.408;8.702;2023-01-19T12:56:57;3.50;99.90
6903;DHT22;20232;49.408;8.702;2023-01-19T12:59:24;3.50;99.90
6903;DHT22;20232;49.408;8.702;2023-01-19T13:02:43;3.50;99.90
6903;DHT22;20232;49.408;8.702;2023-01-19T13:10:53;3.60;99.90
6903;DHT22;20232;49.408;8.702;2023-01-19T13:13:20;3.60;99.90
6903;DHT22;20232;49.408;8.702;2023-01-19T13:15:46;3.50;99.90
6903;DHT22;20232;49.408;8.702;2023-01-19T13:18:31;3.60;99.90
6903;DHT22;20232;49.408;8.702;2023-01-19T13:21:02;3.50;99.90
6903;DHT22;20232;49.408;8.702;2023-01-19T13:26:16;3.50;99.90
6903;DHT22;20232;49.408;8.702;2023-01-19T13:28:45;3.50;99.90
6903;DHT22;20232;49.408;8.702;2023-01-19T13:31:13;3.50;99.90
6903;DHT22;20232;49.408;8.702;2023-01-19T13:33:54;3.50;99.90
6903;DHT22;20232;49.408;8.702;2023-01-19T13:36:35;3.50;99.90
6903;DHT22;20232;49.408;8.702;2023-01-19T13:39:13;3.50;99.90
6903;DHT22;20232;49.408;8.702;2023-01-19T13:41:40;3.60;99.90
6903;DHT22;20232;49.408;8.702;2023-01-19T13:44:23;3.60;99.90
6903;DHT22;20232;49.408;8.702;2023-01-19T13:46:51;3.60;99.90
6903;DHT22;20232;49.408;8.702;2023-01-19T13:49:37;3.50;99.90
6903;DHT22;20232;49.408;8.702;2023-01-19T13:52:28;3.50;99.90
6903;DHT22;20232;49.408;8.702;2023-01-19T13:54:55;3.50;99.90
6903;DHT22;20232;49.408;8.702;2023-01-19T13:57:28;3.50;99.90
6903;DHT22;20232;49.408;8.702;2023-01-19T14:05:36;3.40;99.90
6903;DHT22;20232;49.408;8.702;2023-01-19T14:08:13;3.40;99.90
6903;DHT22;20232;49.408;8.702;2023-01-19T14:11:02;3.50;99.90
6903;DHT22;20232;49.408;8.702;2023-01-19T14:13:32;3.40;99.90
6903;DHT22;20232;49.408;8.702;2023-01-19T14:16:04;3.40;99.90
6903;DHT22;20232;49.408;8.702;2023-01-19T14:18:32;3.50;99.90
6903;DHT22;20232;49.408;8.702;2023-01-19T14:21:03;3.50;99.90
6903;DHT22;20232;49.408;8.702;2023-01-19T14:23:51;3.50;99.90
6903;DHT22;20232;49.408;8.702;2023-01-19T14:34:45;3.50;99.90
6903;DHT22;20232;49.408;8.702;2023-01-19T14:37:19;3.60;99.90
6903;DHT22;20232;49.408;8.702;2023-01-19T14:39:51;3.60;99.90
6903;DHT22;20232;49.408;8.702;2023-01-19T14:42:29;3.60;99.90
6903;DHT22;20232;49.408;8.702;2023-01-19T14:44:58;3.50;99.90
6903;DHT22;20232;49.408;8.702;2023-01-19T14:49:58;3.50;99.90
6903;DHT22;20232;49.408;8.702;2023-01-19T14:52:28;3.50;99.90
6903;DHT22;20232;49.408;8.702;2023-01-19T14:54:56;3.50;99.90
6903;DHT22;20232;49.408;8.702;2023-01-19T14:57:23;3.60;99.90
6903;DHT22;20232;49.408;8.702;2023-01-19T14:59:48;3.60;99.90
6903;DHT22;20232;49.408;8.702;2023-01-19T15:02:16;3.60;99.90
6903;DHT22;20232;49.408;8.702;2023-01-19T15:04:43;3.60;99.90
6903;DHT22;20232;49.408;8.702;2023-01-19T15:07:19;3.60;99.90
6903;DHT22;20232;49.408;8.702;2023-01-19T15:09:45;3.60;99.90
6903;DHT22;20232;49.408;8.702;2023-01-19T15:12:13;3.50;99.90
6903;DHT22;20232;49.408;8.702;2023-01-19T15:14:39;3.50;99.90
6903;DHT22;20232;49.408;8.702;2023-01-19T15:17:05;3.50;99.90
6903;DHT22;20232;49.408;8.702;2023-01-19T15:19:30;3.40;99.90
6903;DHT22;20232;49.408;8.702;2023-01-19T15:21:56;3.30;99.90
6903;DHT22;20232;49.408;8.702;2023-01-19T15:24:22;3.30;99.90
6903;DHT22;20232;49.408;8.702;2023-01-19T15:26:47;3.30;99.90
6903;DHT22;20232;49.408;8.702;2023-01-19T15:29:22;3.30;99.90
6903;DHT22;20232;49.408;8.702;2023-01-19T15:31:48;3.30;99.90
6903;DHT22;20232;49.408;8.702;2023-01-19T15:34:14;3.30;99.90
6903;DHT22;20232;49.408;8.702;2023-01-19T15:36:40;3.20;99.90
6903;DHT22;20232;49.408;8.702;2023-01-19T15:39:07;3.20;99.90
6903;DHT22;20232;49.408;8.702;2023-01-19T15:41:33;3.20;99.90
6903;DHT22;20232;49.408;8.702;2023-01-19T15:43:59;3.20;99.90
6903;DHT22;20232;49.408;8.702;2023-01-19T15:46:25;3.20;99.90
6903;DHT22;20232;49.408;8.702;2023-01-19T15:48:51;3.10;99.90
6903;DHT22;20232;49.408;8.702;2023-01-19T15:51:20;3.10;99.90
6903;DHT22;20232;49.408;8.702;2023-01-19T15:53:46;3.10;99.90
6903;DHT22;20232;49.408;8.702;2023-01-19T15:56:17;3.00;99.90
6903;DHT22;20232;49.408;8.702;2023-01-19T15:58:43;3.00;99.90
6903;DHT22;20232;49.408;8.702;2023-01-19T16:01:12;3.00;99.90
6903;DHT22;20232;49.408;8.702;2023-01-19T16:03:38;3.00;99.90
6903;DHT22;20232;49.408;8.702;2023-01-19T16:06:03;3.00;99.90
6903;DHT22;20232;49.408;8.702;2023-01-19T16:08:29;3.00;99.90
6903;DHT22;20232;49.408;8.702;2023-01-19T16:10:55;3.00;99.90
6903;DHT22;20232;49.408;8.702;2023-01-19T16:13:20;3.00;99.90
6903;DHT22;20232;49.408;8.702;2023-01-19T16:15:46;3.00;99.90
6903;DHT22;20232;49.408;8.702;2023-01-19T16:18:11;3.00;99.90
6903;DHT22;20232;49.408;8.702;2023-01-19T16:20:37;3.10;99.90
6903;DHT22;20232;49.408;8.702;2023-01-19T16:23:03;3.00;99.90
6903;DHT22;20232;49.408;8.702;2023-01-19T16:25:28;3.00;99.90
6903;DHT22;20232;49.408;8.702;2023-01-19T16:27:55;3.00;99.90
6903;DHT22;20232;49.408;8.702;2023-01-19T16:30:21;3.00;99.90
6903;DHT22;20232;49.408;8.702;2023-01-19T16:32:47;3.00;99.90
6903;DHT22;20232;49.408;8.702;2023-01-19T16:35:12;3.00;99.90
6903;DHT22;20232;49.408;8.702;2023-01-19T16:37:40;2.90;99.90
6903;DHT22;20232;49.408;8.702;2023-01-19T16:40:06;2.80;99.90
6903;DHT22;20232;49.408;8.702;2023-01-19T16:42:32;2.80;99.90
6903;DHT22;20232;49.408;8.702;2023-01-19T16:44:57;2.80;99.90
6903;DHT22;20232;49.408;8.702;2023-01-19T16:47:23;2.80;99.90
6903;DHT22;20232;49.408;8.702;2023-01-19T16:49:49;2.70;99.90
6903;DHT22;20232;49.408;8.702;2023-01-19T16:52:17;2.60;99.90
6903;DHT22;20232;49.408;8.702;2023-01-19T16:54:43;2.60;99.90
6903;DHT22;20232;49.408;8.702;2023-01-19T16:57:09;2.60;99.90
6903;DHT22;20232;49.408;8.702;2023-01-19T16:59:35;2.60;99.90
6903;DHT22;20232;49.408;8.702;2023-01-19T17:02:01;2.50;99.90
6903;DHT22;20232;49.408;8.702;2023-01-19T17:04:27;2.50;99.90
6903;DHT22;20232;49.408;8.702;2023-01-19T17:06:53;2.50;99.90
6903;DHT22;20232;49.408;8.702;2023-01-19T17:09:19;2.50;99.90
6903;DHT22;20232;49.408;8.702;2023-01-19T17:11:45;2.50;99.90
6903;DHT22;20232;49.408;8.702;2023-01-19T17:14:13;2.40;99.90
6903;DHT22;20232;49.408;8.702;2023-01-19T17:16:40;2.40;99.90
6903;DHT22;20232;49.408;8.702;2023-01-19T17:19:06;2.30;99.90
6903;DHT22;20232;49.408;8.702;2023-01-19T17:21:32;2.30;99.90
6903;DHT22;20232;49.408;8.702;2023-01-19T17:23:58;2.30;99.90
6903;DHT22;20232;49.408;8.702;2023-01-19T17:26:25;2.30;99.90
6903;DHT22;20232;49.408;8.702;2023-01-19T17:28:57;2.30;99.90
6903;DHT22;20232;49.408;8.702;2023-01-19T17:31:22;2.30;99.90
6903;DHT22;20232;49.408;8.702;2023-01-19T17:33:49;2.30;99.90
6903;DHT22;20232;49.408;8.702;2023-01-19T17:36:17;2.30;99.90
6903;DHT22;20232;49.408;8.702;2023-01-19T17:38:47;2.30;99.90
6903;DHT22;20232;49.408;8.702;2023-01-19T17:41:24;2.30;99.90
6903;DHT22;20232;49.408;8.702;2023-01-19T17:43:51;2.30;99.90
6903;DHT22;20232;49.408;8.702;2023-01-19T17:46:21;2.30;99.90
6903;DHT22;20232;49.408;8.702;2023-01-19T17:49:04;2.20;99.90
6903;DHT22;20232;49.408;8.702;2023-01-19T17:51:30;2.20;99.90
6903;DHT22;20232;49.408;8.702;2023-01-19T17:53:57;2.10;99.90
6903;DHT22;20232;49.408;8.702;2023-01-19T17:56:26;2.10;99.90
6903;DHT22;20232;49.408;8.702;2023-01-19T17:58:54;2.20;99.90
6903;DHT22;20232;49.408;8.702;2023-01-19T18:01:22;2.20;99.90
6903;DHT22;20232;49.408;8.702;2023-01-19T18:03:48;2.10;99.90
6903;DHT22;20232;49.408;8.702;2023-01-19T18:06:14;2.10;99.90
6903;DHT22;20232;49.408;8.702;2023-01-19T18:08:42;2.10;99.90
6903;DHT22;20232;49.408;8.702;2023-01-19T18:11:08;2.10;99.90
6903;DHT22;20232;49.408;8.702;2023-01-19T18:13:34;2.10;99.90
6903;DHT22;20232;49.408;8.702;2023-01-19T18:16:02;2.10;99.90
6903;DHT22;20232;49.408;8.702;2023-01-19T18:18:29;2.10;99.90
6903;DHT22;20232;49.408;8.702;2023-01-19T18:20:59;2.10;99.90
6903;DHT22;20232;49.408;8.702;2023-01-19T18:23:25;2.20;99.90
6903;DHT22;20232;49.408;8.702;2023-01-19T18:26:00;2.10;99.90
6903;DHT22;20232;49.408;8.702;2023-01-19T18:28:26;2.10;99.90
6903;DHT22;20232;49.408;8.702;2023-01-19T18:30:52;2.00;99.90
6903;DHT22;20232;49.408;8.702;2023-01-19T18:33:17;2.00;99.90
6903;DHT22;20232;49.408;8.702;2023-01-19T18:35:44;2.00;99.90
6903;DHT22;20232;49.408;8.702;2023-01-19T18:38:10;2.10;99.90
6903;DHT22;20232;49.408;8.702;2023-01-19T18:40:35;2.10;99.90
6903;DHT22;20232;49.408;8.702;2023-01-19T18:43:01;2.10;99.90
6903;DHT22;20232;49.408;8.702;2023-01-19T18:45:27;2.10;99.90
6903;DHT22;20232;49.408;8.702;2023-01-19T18:47:52;2.20;99.90
6903;DHT22;20232;49.408;8.702;2023-01-19T18:50:18;2.20;99.90
6903;DHT22;20232;49.408;8.702;2023-01-19T18:52:47;2.20;99.90
6903;DHT22;20232;49.408;8.702;2023-01-19T18:55:13;2.10;99.90
6903;DHT22;20232;49.408;8.702;2023-01-19T18:57:38;2.10;99.90
6903;DHT22;20232;49.408;8.702;2023-01-19T19:00:05;2.10;99.90
6903;DHT22;20232;49.408;8.702;2023-01-19T19:02:31;2.10;99.90
6903;DHT22;20232;49.408;8.702;2023-01-19T19:04:57;2.10;99.90
6903;DHT22;20232;49.408;8.702;2023-01-19T19:07:22;2.10;99.90
6903;DHT22;20232;49.408;8.702;2023-01-19T19:09:48;2.10;99.90
6903;DHT22;20232;49.408;8.702;2023-01-19T19:12:13;2.20;99.90
6903;DHT22;20232;49.408;8.702;2023-01-19T19:14:39;2.20;99.90
6903;DHT22;20232;49.408;8.702;2023-01-19T19:17:04;2.20;99.90
6903;DHT22;20232;49.408;8.702;2023-01-19T19:19:30;2.20;99.90
6903;DHT22;20232;49.408;8.702;2023-01-19T19:21:59;2.20;99.90
6903;DHT22;20232;49.408;8.702;2023-01-19T19:24:24;2.20;99.90
6903;DHT22;20232;49.408;8.702;2023-01-19T19:26:50;2.30;99.90
6903;DHT22;20232;49.408;8.702;2023-01-19T19:29:16;2.20;99.90
6903;DHT22;20232;49.408;8.702;2023-01-19T19:31:41;2.30;99.90
6903;DHT22;20232;49.408;8.702;2023-01-19T19:34:07;2.30;99.90
6903;DHT22;20232;49.408;8.702;2023-01-19T19:36:34;2.30;99.90
6903;DHT22;20232;49.408;8.702;2023-01-19T19:39:00;2.30;99.90
6903;DHT22;20232;49.408;8.702;2023-01-19T19:41:27;2.40;99.90
6903;DHT22;20232;49.408;8.702;2023-01-19T19:43:53;2.40;99.90
6903;DHT22;20232;49.408;8.702;2023-01-19T19:46:20;2.40;99.90
6903;DHT22;20232;49.408;8.702;2023-01-19T19:48:47;2.40;99.90
6903;DHT22;20232;49.408;8.702;2023-01-19T19:51:21;2.40;99.90
6903;DHT22;20232;49.408;8.702;2023-01-19T19:53:47;2.30;99.90
6903;DHT22;20232;49.408;8.702;2023-01-19T19:56:14;2.30;99.90
6903;DHT22;20232;49.408;8.702;2023-01-19T19:58:40;2.30;99.90
6903;DHT22;20232;49.408;8.702;2023-01-19T20:01:18;2.30;99.90
6903;DHT22;20232;49.408;8.702;2023-01-19T20:03:43;2.30;99.90
6903;DHT22;20232;49.408;8.702;2023-01-19T20:06:18;2.30;99.90
6903;DHT22;20232;49.408;8.702;2023-01-19T20:08:48;2.30;99.90
6903;DHT22;20232;49.408;8.702;2023-01-19T20:11:18;2.30;99.90
6903;DHT22;20232;49.408;8.702;2023-01-19T20:13:44;2.30;99.90
6903;DHT22;20232;49.408;8.702;2023-01-19T20:16:14;2.30;99.90
6903;DHT22;20232;49.408;8.702;2023-01-19T20:18:42;2.30;99.90
6903;DHT22;20232;49.408;8.702;2023-01-19T20:21:12;2.30;99.90
6903;DHT22;20232;49.408;8.702;2023-01-19T20:23:39;2.30;99.90
6903;DHT22;20232;49.408;8.702;2023-01-19T20:26:06;2.30;99.90
6903;DHT22;20232;49.408;8.702;2023-01-19T20:28:33;2.30;99.90
6903;DHT22;20232;49.408;8.702;2023-01-19T20:31:16;2.30;99.90
6903;DHT22;20232;49.408;8.702;2023-01-19T20:33:42;2.30;99.90
6903;DHT22;20232;49.408;8.702;2023-01-19T20:36:08;2.20;99.90
6903;DHT22;20232;49.408;8.702;2023-01-19T20:38:35;2.20;99.90
6903;DHT22;20232;49.408;8.702;2023-01-19T20:41:01;2.20;99.90
6903;DHT22;20232;49.408;8.702;2023-01-19T20:43:28;2.20;99.90
6903;DHT22;20232;49.408;8.702;2023-01-19T20:45:54;2.20;99.90
6903;DHT22;20232;49.408;8.702;2023-01-19T20:48:19;2.20;99.90
6903;DHT22;20232;49.408;8.702;2023-01-19T20:50:45;2.20;99.90
6903;DHT22;20232;49.408;8.702;2023-01-19T20:53:11;2.20;99.90
6903;DHT22;20232;49.408;8.702;2023-01-19T20:55:36;2.10;99.90
6903;DHT22;20232;49.408;8.702;2023-01-19T20:58:02;2.10;99.90
6903;DHT22;20232;49.408;8.702;2023-01-19T21:00:28;2.10;99.90
6903;DHT22;20232;49.408;8.702;2023-01-19T21:02:53;2.10;99.90
6903;DHT22;20232;49.408;8.702;2023-01-19T21:05:21;2.00;99.90
6903;DHT22;20232;49.408;8.702;2023-01-19T21:07:46;2.00;99.90
6903;DHT22;20232;49.408;8.702;2023-01-19T21:10:12;2.00;99.90
6903;DHT22;20232;49.408;8.702;2023-01-19T21:12:38;2.10;99.90
6903;DHT22;20232;49.408;8.702;2023-01-19T21:15:03;2.10;99.90
6903;DHT22;20232;49.408;8.702;2023-01-19T21:17:29;2.10;99.90
6903;DHT22;20232;49.408;8.702;2023-01-19T21:19:55;2.10;99.90
6903;DHT22;20232;49.408;8.702;2023-01-19T21:22:20;2.20;99.90
6903;DHT22;20232;49.408;8.702;2023-01-19T21:24:46;2.20;99.90
6903;DHT22;20232;49.408;8.702;2023-01-19T21:27:11;2.20;99.90
6903;DHT22;20232;49.408;8.702;2023-01-19T21:29:37;2.20;99.90
6903;DHT22;20232;49.408;8.702;2023-01-19T21:32:03;2.20;99.90
6903;DHT22;20232;49.408;8.702;2023-01-19T21:34:28;2.20;99.90
6903;DHT22;20232;49.408;8.702;2023-01-19T21:36:54;2.30;99.90
6903;DHT22;20232;49.408;8.702;2023-01-19T21:39:19;2.20;99.90
6903;DHT22;20232;49.408;8.702;2023-01-19T21:41:45;2.20;99.90
6903;DHT22;20232;49.408;8.702;2023-01-19T21:44:11;2.20;99.90
6903;DHT22;20232;49.408;8.702;2023-01-19T21:46:37;2.20;99.90
6903;DHT22;20232;49.408;8.702;2023-01-19T21:49:04;2.30;99.90
6903;DHT22;20232;49.408;8.702;2023-01-19T21:51:34;2.30;99.90
6903;DHT22;20232;49.408;8.702;2023-01-19T21:54:01;2.30;99.90
6903;DHT22;20232;49.408;8.702;2023-01-19T21:56:28;2.30;99.90
6903;DHT22;20232;49.408;8.702;2023-01-19T21:58:55;2.30;99.90
6903;DHT22;20232;49.408;8.702;2023-01-19T22:01:21;2.20;99.90
6903;DHT22;20232;49.408;8.702;2023-01-19T22:03:48;2.10;99.90
6903;DHT22;20232;49.408;8.702;2023-01-19T22:06:17;2.20;99.90
6903;DHT22;20232;49.408;8.702;2023-01-19T22:08:42;2.10;99.90